sensor_id;sensor_type;location;lat;lon;timestamp;P1;durP1;ratioP1;P2;durP2;ratioP2
787;SDS011;16074;42.708;23.312;2023-02-02T00:01:40;3.65;;;3.28;;
787;SDS011;16074;42.708;23.312;2023-02-02T00:04:14;5.97;;;3.75;;
787;SDS011;16074;42.708;23.312;2023-02-02T00:06:44;5.35;;;4.10;;
787;SDS011;16074;42.708;23.312;2023-02-02T00:09:15;3.25;;;2.95;;
787;SDS011;16074;42.708;23.312;2023-02-02T00:11:44;5.63;;;2.92;;
787;SDS011;16074;42.708;23.312;2023-02-02T00:14:14;3.15;;;2.80;;
787;SDS011;16074;42.708;23.312;2023-02-02T00:16:42;2.58;;;2.38;;
787;SDS011;16074;42.708;23.312;2023-02-02T00:19:14;2.67;;;2.50;;
787;SDS011;16074;42.708;23.312;2023-02-02T00:21:44;4.15;;;3.30;;
787;SDS011;16074;42.708;23.312;2023-02-02T00:24:13;2.55;;;2.45;;
787;SDS011;16074;42.708;23.312;2023-02-02T00:26:45;3.90;;;2.50;;
787;SDS011;16074;42.708;23.312;2023-02-02T00:29:15;3.78;;;3.47;;
787;SDS011;16074;42.708;23.312;2023-02-02T00:31:46;3.42;;;2.72;;
787;SDS011;16074;42.708;23.312;2023-02-02T00:34:16;3.70;;;3.35;;
787;SDS011;16074;42.708;23.312;2023-02-02T00:36:45;4.20;;;3.10;;
787;SDS011;16074;42.708;23.312;2023-02-02T00:39:15;3.05;;;2.83;;
787;SDS011;16074;42.708;23.312;2023-02-02T00:41:45;3.50;;;3.15;;
787;SDS011;16074;42.708;23.312;2023-02-02T00:44:13;3.63;;;2.33;;
787;SDS011;16074;42.708;23.312;2023-02-02T00:47:00;3.60;;;2.85;;
787;SDS011;16074;42.708;23.312;2023-02-02T00:49:30;3.83;;;3.33;;
787;SDS011;16074;42.708;23.312;2023-02-02T00:51:58;7.28;;;3.05;;
787;SDS011;16074;42.708;23.312;2023-02-02T00:54:26;4.38;;;3.00;;
787;SDS011;16074;42.708;23.312;2023-02-02T00:56:54;4.30;;;3.95;;
787;SDS011;16074;42.708;23.312;2023-02-02T00:59:23;3.20;;;2.75;;
787;SDS011;16074;42.708;23.312;2023-02-02T01:01:51;4.28;;;3.88;;
787;SDS011;16074;42.708;23.312;2023-02-02T01:04:19;3.05;;;2.75;;
787;SDS011;16074;42.708;23.312;2023-02-02T01:06:49;2.80;;;2.60;;
787;SDS011;16074;42.708;23.312;2023-02-02T01:09:17;3.08;;;2.88;;
787;SDS011;16074;42.708;23.312;2023-02-02T01:11:46;3.47;;;3.17;;
787;SDS011;16074;42.708;23.312;2023-02-02T01:14:14;3.30;;;3.08;;
787;SDS011;16074;42.708;23.312;2023-02-02T01:16:43;2.78;;;2.58;;
787;SDS011;16074;42.708;23.312;2023-02-02T01:19:11;2.88;;;2.67;;
787;SDS011;16074;42.708;23.312;2023-02-02T01:21:40;8.32;;;3.30;;
787;SDS011;16074;42.708;23.312;2023-02-02T01:24:10;4.25;;;2.67;;
787;SDS011;16074;42.708;23.312;2023-02-02T01:26:39;2.60;;;2.50;;
787;SDS011;16074;42.708;23.312;2023-02-02T01:29:07;3.95;;;3.60;;
787;SDS011;16074;42.708;23.312;2023-02-02T01:31:35;7.32;;;4.93;;
787;SDS011;16074;42.708;23.312;2023-02-02T01:34:04;5.45;;;4.65;;
787;SDS011;16074;42.708;23.312;2023-02-02T01:36:32;5.78;;;4.65;;
787;SDS011;16074;42.708;23.312;2023-02-02T01:39:00;3.97;;;3.67;;
787;SDS011;16074;42.708;23.312;2023-02-02T01:41:30;6.70;;;4.72;;
787;SDS011;16074;42.708;23.312;2023-02-02T01:43:58;7.00;;;5.38;;
787;SDS011;16074;42.708;23.312;2023-02-02T01:46:29;10.18;;;5.03;;
787;SDS011;16074;42.708;23.312;2023-02-02T01:49:00;10.77;;;5.75;;
787;SDS011;16074;42.708;23.312;2023-02-02T01:51:34;6.10;;;5.50;;
787;SDS011;16074;42.708;23.312;2023-02-02T01:54:07;6.18;;;4.68;;
787;SDS011;16074;42.708;23.312;2023-02-02T01:56:40;8.07;;;5.78;;
787;SDS011;16074;42.708;23.312;2023-02-02T01:59:12;6.10;;;5.45;;
787;SDS011;16074;42.708;23.312;2023-02-02T02:01:42;7.88;;;4.40;;
787;SDS011;16074;42.708;23.312;2023-02-02T02:04:13;7.68;;;4.90;;
787;SDS011;16074;42.708;23.312;2023-02-02T02:06:43;5.55;;;4.88;;
787;SDS011;16074;42.708;23.312;2023-02-02T02:09:14;5.65;;;3.45;;
787;SDS011;16074;42.708;23.312;2023-02-02T02:11:44;5.18;;;4.28;;
787;SDS011;16074;42.708;23.312;2023-02-02T02:14:12;4.00;;;3.67;;
787;SDS011;16074;42.708;23.312;2023-02-02T02:17:04;5.85;;;4.57;;
787;SDS011;16074;42.708;23.312;2023-02-02T02:19:55;5.15;;;4.75;;
787;SDS011;16074;42.708;23.312;2023-02-02T02:23:07;4.88;;;4.28;;
787;SDS011;16074;42.708;23.312;2023-02-02T02:26:18;4.00;;;3.70;;
787;SDS011;16074;42.708;23.312;2023-02-02T02:32:17;5.80;;;4.65;;
787;SDS011;16074;42.708;23.312;2023-02-02T02:34:56;6.10;;;5.15;;
787;SDS011;16074;42.708;23.312;2023-02-02T02:37:35;6.78;;;3.80;;
787;SDS011;16074;42.708;23.312;2023-02-02T02:40:10;4.43;;;4.03;;
787;SDS011;16074;42.708;23.312;2023-02-02T02:42:47;4.53;;;4.13;;
787;SDS011;16074;42.708;23.312;2023-02-02T02:45:19;5.78;;;4.55;;
787;SDS011;16074;42.708;23.312;2023-02-02T02:47:51;4.22;;;3.92;;
787;SDS011;16074;42.708;23.312;2023-02-02T02:50:22;4.15;;;3.85;;
787;SDS011;16074;42.708;23.312;2023-02-02T02:52:52;4.93;;;4.40;;
787;SDS011;16074;42.708;23.312;2023-02-02T02:55:30;4.40;;;3.42;;
787;SDS011;16074;42.708;23.312;2023-02-02T02:58:07;4.53;;;4.10;;
787;SDS011;16074;42.708;23.312;2023-02-02T03:00:54;6.55;;;4.10;;
787;SDS011;16074;42.708;23.312;2023-02-02T03:03:36;4.75;;;4.28;;
787;SDS011;16074;42.708;23.312;2023-02-02T03:06:20;4.53;;;4.22;;
787;SDS011;16074;42.708;23.312;2023-02-02T03:08:57;4.18;;;3.88;;
787;SDS011;16074;42.708;23.312;2023-02-02T03:11:29;5.03;;;4.22;;
787;SDS011;16074;42.708;23.312;2023-02-02T03:13:58;4.45;;;3.58;;
787;SDS011;16074;42.708;23.312;2023-02-02T03:16:28;4.32;;;3.90;;
787;SDS011;16074;42.708;23.312;2023-02-02T03:18:58;4.20;;;3.80;;
787;SDS011;16074;42.708;23.312;2023-02-02T03:21:26;4.05;;;3.67;;
787;SDS011;16074;42.708;23.312;2023-02-02T03:23:54;4.28;;;3.88;;
787;SDS011;16074;42.708;23.312;2023-02-02T03:26:22;5.07;;;4.35;;
787;SDS011;16074;42.708;23.312;2023-02-02T03:28:52;5.03;;;4.43;;
787;SDS011;16074;42.708;23.312;2023-02-02T03:31:22;5.00;;;3.90;;
787;SDS011;16074;42.708;23.312;2023-02-02T03:33:53;4.22;;;3.92;;
787;SDS011;16074;42.708;23.312;2023-02-02T03:36:23;5.25;;;4.35;;
787;SDS011;16074;42.708;23.312;2023-02-02T03:38:51;6.53;;;5.40;;
787;SDS011;16074;42.708;23.312;2023-02-02T03:41:19;6.78;;;5.75;;
787;SDS011;16074;42.708;23.312;2023-02-02T03:43:47;7.68;;;5.55;;
787;SDS011;16074;42.708;23.312;2023-02-02T03:46:15;11.63;;;6.15;;
787;SDS011;16074;42.708;23.312;2023-02-02T03:48:44;8.32;;;6.97;;
787;SDS011;16074;42.708;23.312;2023-02-02T03:51:13;5.72;;;5.22;;
787;SDS011;16074;42.708;23.312;2023-02-02T03:53:43;6.50;;;5.90;;
787;SDS011;16074;42.708;23.312;2023-02-02T03:56:13;6.68;;;5.60;;
787;SDS011;16074;42.708;23.312;2023-02-02T03:58:41;7.57;;;5.55;;
787;SDS011;16074;42.708;23.312;2023-02-02T04:01:12;8.38;;;5.82;;
787;SDS011;16074;42.708;23.312;2023-02-02T04:03:41;4.70;;;4.30;;
787;SDS011;16074;42.708;23.312;2023-02-02T04:06:09;7.43;;;5.35;;
787;SDS011;16074;42.708;23.312;2023-02-02T04:08:37;7.50;;;5.10;;
787;SDS011;16074;42.708;23.312;2023-02-02T04:11:09;8.10;;;5.20;;
787;SDS011;16074;42.708;23.312;2023-02-02T04:13:37;5.93;;;5.28;;
787;SDS011;16074;42.708;23.312;2023-02-02T04:16:09;5.28;;;4.80;;
787;SDS011;16074;42.708;23.312;2023-02-02T04:18:38;5.65;;;5.25;;
787;SDS011;16074;42.708;23.312;2023-02-02T04:21:06;6.95;;;4.07;;
787;SDS011;16074;42.708;23.312;2023-02-02T04:23:35;7.30;;;4.32;;
787;SDS011;16074;42.708;23.312;2023-02-02T04:26:04;5.90;;;4.70;;
787;SDS011;16074;42.708;23.312;2023-02-02T04:28:34;4.97;;;4.13;;
787;SDS011;16074;42.708;23.312;2023-02-02T04:31:02;5.65;;;5.00;;
787;SDS011;16074;42.708;23.312;2023-02-02T04:33:32;5.70;;;5.07;;
787;SDS011;16074;42.708;23.312;2023-02-02T04:36:01;6.53;;;5.40;;
787;SDS011;16074;42.708;23.312;2023-02-02T04:38:29;6.53;;;5.93;;
787;SDS011;16074;42.708;23.312;2023-02-02T04:40:57;7.82;;;5.88;;
787;SDS011;16074;42.708;23.312;2023-02-02T04:43:25;6.57;;;5.55;;
787;SDS011;16074;42.708;23.312;2023-02-02T04:45:55;6.70;;;5.85;;
787;SDS011;16074;42.708;23.312;2023-02-02T04:48:24;6.18;;;5.57;;
787;SDS011;16074;42.708;23.312;2023-02-02T04:50:56;8.80;;;6.30;;
787;SDS011;16074;42.708;23.312;2023-02-02T04:53:25;11.98;;;8.85;;
787;SDS011;16074;42.708;23.312;2023-02-02T04:55:53;10.43;;;9.32;;
787;SDS011;16074;42.708;23.312;2023-02-02T04:58:22;11.00;;;8.48;;
787;SDS011;16074;42.708;23.312;2023-02-02T05:00:50;7.82;;;6.53;;
787;SDS011;16074;42.708;23.312;2023-02-02T05:03:19;9.10;;;7.00;;
787;SDS011;16074;42.708;23.312;2023-02-02T05:05:48;7.38;;;5.78;;
787;SDS011;16074;42.708;23.312;2023-02-02T05:08:16;8.98;;;6.50;;
787;SDS011;16074;42.708;23.312;2023-02-02T05:10:44;6.47;;;5.60;;
787;SDS011;16074;42.708;23.312;2023-02-02T05:13:12;7.10;;;6.40;;
787;SDS011;16074;42.708;23.312;2023-02-02T05:15:41;8.52;;;7.28;;
787;SDS011;16074;42.708;23.312;2023-02-02T05:18:09;6.70;;;6.00;;
787;SDS011;16074;42.708;23.312;2023-02-02T05:20:39;9.02;;;6.75;;
787;SDS011;16074;42.708;23.312;2023-02-02T05:23:07;9.13;;;7.20;;
787;SDS011;16074;42.708;23.312;2023-02-02T05:25:35;8.32;;;7.53;;
787;SDS011;16074;42.708;23.312;2023-02-02T05:28:03;7.90;;;7.10;;
787;SDS011;16074;42.708;23.312;2023-02-02T05:30:32;9.25;;;7.05;;
787;SDS011;16074;42.708;23.312;2023-02-02T05:33:00;8.43;;;7.00;;
787;SDS011;16074;42.708;23.312;2023-02-02T05:35:28;9.25;;;7.45;;
787;SDS011;16074;42.708;23.312;2023-02-02T05:37:58;9.10;;;7.30;;
787;SDS011;16074;42.708;23.312;2023-02-02T05:40:26;9.52;;;8.07;;
787;SDS011;16074;42.708;23.312;2023-02-02T05:42:54;8.23;;;7.53;;
787;SDS011;16074;42.708;23.312;2023-02-02T05:45:23;12.18;;;8.52;;
787;SDS011;16074;42.708;23.312;2023-02-02T05:47:52;10.48;;;8.13;;
787;SDS011;16074;42.708;23.312;2023-02-02T05:50:21;10.82;;;7.32;;
787;SDS011;16074;42.708;23.312;2023-02-02T05:53:01;9.20;;;7.70;;
787;SDS011;16074;42.708;23.312;2023-02-02T05:55:30;11.82;;;8.13;;
787;SDS011;16074;42.708;23.312;2023-02-02T05:57:58;12.73;;;8.70;;
787;SDS011;16074;42.708;23.312;2023-02-02T06:00:27;15.30;;;8.13;;
787;SDS011;16074;42.708;23.312;2023-02-02T06:02:55;11.30;;;7.97;;
787;SDS011;16074;42.708;23.312;2023-02-02T06:05:23;14.95;;;9.95;;
787;SDS011;16074;42.708;23.312;2023-02-02T06:07:52;11.80;;;9.52;;
787;SDS011;16074;42.708;23.312;2023-02-02T06:10:21;9.68;;;8.52;;
787;SDS011;16074;42.708;23.312;2023-02-02T06:12:50;12.75;;;10.45;;
787;SDS011;16074;42.708;23.312;2023-02-02T06:15:18;11.15;;;9.10;;
787;SDS011;16074;42.708;23.312;2023-02-02T06:17:46;11.25;;;9.15;;
787;SDS011;16074;42.708;23.312;2023-02-02T06:20:14;8.50;;;7.70;;
787;SDS011;16074;42.708;23.312;2023-02-02T06:22:43;12.40;;;8.20;;
787;SDS011;16074;42.708;23.312;2023-02-02T06:25:11;11.00;;;8.63;;
787;SDS011;16074;42.708;23.312;2023-02-02T06:27:41;15.48;;;10.25;;
787;SDS011;16074;42.708;23.312;2023-02-02T06:30:11;12.27;;;10.70;;
787;SDS011;16074;42.708;23.312;2023-02-02T06:32:40;19.40;;;13.63;;
787;SDS011;16074;42.708;23.312;2023-02-02T06:35:09;18.90;;;13.40;;
787;SDS011;16074;42.708;23.312;2023-02-02T06:37:37;15.80;;;13.13;;
787;SDS011;16074;42.708;23.312;2023-02-02T06:40:06;21.52;;;12.18;;
787;SDS011;16074;42.708;23.312;2023-02-02T06:42:35;14.95;;;10.25;;
787;SDS011;16074;42.708;23.312;2023-02-02T06:45:06;12.15;;;10.25;;
787;SDS011;16074;42.708;23.312;2023-02-02T06:47:35;15.15;;;9.48;;
787;SDS011;16074;42.708;23.312;2023-02-02T06:50:03;9.30;;;7.95;;
787;SDS011;16074;42.708;23.312;2023-02-02T06:52:32;8.80;;;7.90;;
787;SDS011;16074;42.708;23.312;2023-02-02T06:55:00;11.38;;;8.10;;
787;SDS011;16074;42.708;23.312;2023-02-02T06:57:28;10.90;;;9.48;;
787;SDS011;16074;42.708;23.312;2023-02-02T06:59:57;13.55;;;9.40;;
787;SDS011;16074;42.708;23.312;2023-02-02T07:02:26;12.25;;;10.77;;
787;SDS011;16074;42.708;23.312;2023-02-02T07:04:54;13.20;;;11.05;;
787;SDS011;16074;42.708;23.312;2023-02-02T07:07:23;15.32;;;11.18;;
787;SDS011;16074;42.708;23.312;2023-02-02T07:09:51;14.32;;;11.40;;
787;SDS011;16074;42.708;23.312;2023-02-02T07:12:24;13.18;;;11.35;;
787;SDS011;16074;42.708;23.312;2023-02-02T07:14:53;14.82;;;10.60;;
787;SDS011;16074;42.708;23.312;2023-02-02T07:17:21;13.95;;;10.75;;
787;SDS011;16074;42.708;23.312;2023-02-02T07:19:50;18.02;;;12.77;;
787;SDS011;16074;42.708;23.312;2023-02-02T07:22:19;12.43;;;9.75;;
787;SDS011;16074;42.708;23.312;2023-02-02T07:24:47;14.88;;;10.30;;
787;SDS011;16074;42.708;23.312;2023-02-02T07:27:15;15.52;;;10.43;;
787;SDS011;16074;42.708;23.312;2023-02-02T07:29:44;14.02;;;9.85;;
787;SDS011;16074;42.708;23.312;2023-02-02T07:32:12;13.95;;;9.45;;
787;SDS011;16074;42.708;23.312;2023-02-02T07:34:40;14.35;;;8.75;;
787;SDS011;16074;42.708;23.312;2023-02-02T07:37:11;12.82;;;10.00;;
787;SDS011;16074;42.708;23.312;2023-02-02T07:39:39;11.88;;;10.48;;
787;SDS011;16074;42.708;23.312;2023-02-02T07:42:09;11.32;;;8.73;;
787;SDS011;16074;42.708;23.312;2023-02-02T07:44:39;12.48;;;9.00;;
787;SDS011;16074;42.708;23.312;2023-02-02T07:47:07;9.68;;;7.57;;
787;SDS011;16074;42.708;23.312;2023-02-02T07:49:36;13.13;;;9.93;;
787;SDS011;16074;42.708;23.312;2023-02-02T07:52:04;12.77;;;9.82;;
787;SDS011;16074;42.708;23.312;2023-02-02T07:54:33;14.82;;;9.00;;
787;SDS011;16074;42.708;23.312;2023-02-02T07:57:02;14.45;;;9.68;;
787;SDS011;16074;42.708;23.312;2023-02-02T07:59:30;14.57;;;11.15;;
787;SDS011;16074;42.708;23.312;2023-02-02T08:01:59;20.40;;;11.40;;
787;SDS011;16074;42.708;23.312;2023-02-02T08:04:27;10.52;;;9.35;;
787;SDS011;16074;42.708;23.312;2023-02-02T08:06:55;15.07;;;9.52;;
787;SDS011;16074;42.708;23.312;2023-02-02T08:09:24;10.13;;;8.30;;
787;SDS011;16074;42.708;23.312;2023-02-02T08:11:53;15.10;;;9.38;;
787;SDS011;16074;42.708;23.312;2023-02-02T08:14:27;13.75;;;10.70;;
787;SDS011;16074;42.708;23.312;2023-02-02T08:16:56;10.05;;;9.05;;
787;SDS011;16074;42.708;23.312;2023-02-02T08:19:24;15.23;;;8.75;;
787;SDS011;16074;42.708;23.312;2023-02-02T08:21:52;11.88;;;9.20;;
787;SDS011;16074;42.708;23.312;2023-02-02T08:24:20;10.63;;;8.30;;
787;SDS011;16074;42.708;23.312;2023-02-02T08:26:48;10.40;;;8.18;;
787;SDS011;16074;42.708;23.312;2023-02-02T08:29:18;11.05;;;7.25;;
787;SDS011;16074;42.708;23.312;2023-02-02T08:31:46;11.68;;;7.43;;
787;SDS011;16074;42.708;23.312;2023-02-02T08:34:15;13.25;;;8.35;;
787;SDS011;16074;42.708;23.312;2023-02-02T08:36:43;9.75;;;8.13;;
787;SDS011;16074;42.708;23.312;2023-02-02T08:39:11;10.80;;;7.53;;
787;SDS011;16074;42.708;23.312;2023-02-02T08:41:40;11.25;;;7.82;;
787;SDS011;16074;42.708;23.312;2023-02-02T08:44:10;12.52;;;11.10;;
787;SDS011;16074;42.708;23.312;2023-02-02T08:46:41;15.88;;;9.05;;
787;SDS011;16074;42.708;23.312;2023-02-02T08:49:10;9.38;;;7.45;;
787;SDS011;16074;42.708;23.312;2023-02-02T08:51:39;8.18;;;7.38;;
787;SDS011;16074;42.708;23.312;2023-02-02T08:54:08;9.27;;;7.30;;
787;SDS011;16074;42.708;23.312;2023-02-02T08:56:36;10.63;;;7.43;;
787;SDS011;16074;42.708;23.312;2023-02-02T08:59:05;7.65;;;6.85;;
787;SDS011;16074;42.708;23.312;2023-02-02T09:01:33;6.35;;;4.97;;
787;SDS011;16074;42.708;23.312;2023-02-02T09:04:04;5.13;;;4.63;;
787;SDS011;16074;42.708;23.312;2023-02-02T09:06:34;5.85;;;5.22;;
787;SDS011;16074;42.708;23.312;2023-02-02T09:09:03;6.43;;;5.28;;
787;SDS011;16074;42.708;23.312;2023-02-02T09:11:32;3.65;;;3.38;;
787;SDS011;16074;42.708;23.312;2023-02-02T09:14:00;4.30;;;3.88;;
787;SDS011;16074;42.708;23.312;2023-02-02T09:16:32;4.82;;;4.22;;
787;SDS011;16074;42.708;23.312;2023-02-02T09:19:01;3.95;;;3.58;;
787;SDS011;16074;42.708;23.312;2023-02-02T09:21:31;3.78;;;3.47;;
787;SDS011;16074;42.708;23.312;2023-02-02T09:24:04;5.00;;;3.80;;
787;SDS011;16074;42.708;23.312;2023-02-02T09:26:34;6.10;;;3.92;;
787;SDS011;16074;42.708;23.312;2023-02-02T09:29:06;5.63;;;3.50;;
787;SDS011;16074;42.708;23.312;2023-02-02T09:31:37;4.40;;;3.95;;
787;SDS011;16074;42.708;23.312;2023-02-02T09:34:08;5.80;;;5.30;;
787;SDS011;16074;42.708;23.312;2023-02-02T09:36:37;6.63;;;5.20;;
787;SDS011;16074;42.708;23.312;2023-02-02T09:39:07;5.43;;;4.68;;
787;SDS011;16074;42.708;23.312;2023-02-02T09:44:34;4.07;;;3.67;;
787;SDS011;16074;42.708;23.312;2023-02-02T09:47:22;4.90;;;4.13;;
787;SDS011;16074;42.708;23.312;2023-02-02T09:49:59;5.70;;;3.63;;
787;SDS011;16074;42.708;23.312;2023-02-02T09:52:33;7.17;;;3.90;;
787;SDS011;16074;42.708;23.312;2023-02-02T09:55:10;3.73;;;3.30;;
787;SDS011;16074;42.708;23.312;2023-02-02T09:57:42;3.60;;;3.27;;
787;SDS011;16074;42.708;23.312;2023-02-02T10:00:23;4.57;;;4.17;;
787;SDS011;16074;42.708;23.312;2023-02-02T10:02:56;5.07;;;4.60;;
787;SDS011;16074;42.708;23.312;2023-02-02T10:05:33;4.10;;;3.70;;
787;SDS011;16074;42.708;23.312;2023-02-02T10:08:14;4.45;;;4.07;;
787;SDS011;16074;42.708;23.312;2023-02-02T10:11:00;4.95;;;4.45;;
787;SDS011;16074;42.708;23.312;2023-02-02T10:13:43;8.70;;;6.78;;
787;SDS011;16074;42.708;23.312;2023-02-02T10:16:15;4.10;;;3.70;;
787;SDS011;16074;42.708;23.312;2023-02-02T10:18:47;5.40;;;4.47;;
787;SDS011;16074;42.708;23.312;2023-02-02T10:21:25;4.28;;;3.88;;
787;SDS011;16074;42.708;23.312;2023-02-02T10:24:00;3.58;;;3.28;;
787;SDS011;16074;42.708;23.312;2023-02-02T10:26:32;6.60;;;4.03;;
787;SDS011;16074;42.708;23.312;2023-02-02T10:29:07;5.65;;;4.45;;
787;SDS011;16074;42.708;23.312;2023-02-02T10:31:43;5.47;;;4.97;;
787;SDS011;16074;42.708;23.312;2023-02-02T10:34:19;4.20;;;3.90;;
787;SDS011;16074;42.708;23.312;2023-02-02T10:36:58;3.60;;;3.30;;
787;SDS011;16074;42.708;23.312;2023-02-02T10:39:34;3.95;;;3.65;;
787;SDS011;16074;42.708;23.312;2023-02-02T10:42:14;7.18;;;3.55;;
787;SDS011;16074;42.708;23.312;2023-02-02T10:44:51;8.82;;;3.42;;
787;SDS011;16074;42.708;23.312;2023-02-02T10:47:24;5.20;;;3.88;;
787;SDS011;16074;42.708;23.312;2023-02-02T10:49:59;3.70;;;3.40;;
787;SDS011;16074;42.708;23.312;2023-02-02T10:52:36;4.78;;;3.45;;
787;SDS011;16074;42.708;23.312;2023-02-02T10:55:06;4.38;;;3.70;;
787;SDS011;16074;42.708;23.312;2023-02-02T10:57:46;4.53;;;3.83;;
787;SDS011;16074;42.708;23.312;2023-02-02T11:00:21;5.93;;;4.60;;
787;SDS011;16074;42.708;23.312;2023-02-02T11:02:52;7.40;;;3.40;;
787;SDS011;16074;42.708;23.312;2023-02-02T11:05:22;4.18;;;3.53;;
787;SDS011;16074;42.708;23.312;2023-02-02T11:08:15;6.00;;;5.45;;
787;SDS011;16074;42.708;23.312;2023-02-02T11:10:46;6.05;;;4.80;;
787;SDS011;16074;42.708;23.312;2023-02-02T11:13:19;5.28;;;4.43;;
787;SDS011;16074;42.708;23.312;2023-02-02T11:18:49;3.78;;;3.35;;
787;SDS011;16074;42.708;23.312;2023-02-02T11:21:18;4.93;;;4.05;;
787;SDS011;16074;42.708;23.312;2023-02-02T11:23:53;6.65;;;4.65;;
787;SDS011;16074;42.708;23.312;2023-02-02T11:26:24;4.82;;;3.20;;
787;SDS011;16074;42.708;23.312;2023-02-02T11:28:54;5.55;;;4.97;;
787;SDS011;16074;42.708;23.312;2023-02-02T11:31:30;3.80;;;3.25;;
787;SDS011;16074;42.708;23.312;2023-02-02T11:37:03;4.68;;;4.00;;
787;SDS011;16074;42.708;23.312;2023-02-02T11:39:40;5.30;;;3.85;;
787;SDS011;16074;42.708;23.312;2023-02-02T11:42:12;3.90;;;3.60;;
787;SDS011;16074;42.708;23.312;2023-02-02T11:44:43;6.50;;;4.43;;
787;SDS011;16074;42.708;23.312;2023-02-02T11:47:19;4.53;;;4.13;;
787;SDS011;16074;42.708;23.312;2023-02-02T11:49:51;5.55;;;4.60;;
787;SDS011;16074;42.708;23.312;2023-02-02T11:52:26;9.23;;;4.78;;
787;SDS011;16074;42.708;23.312;2023-02-02T11:55:00;5.60;;;3.70;;
787;SDS011;16074;42.708;23.312;2023-02-02T11:57:36;4.53;;;3.53;;
787;SDS011;16074;42.708;23.312;2023-02-02T12:00:05;5.80;;;5.28;;
787;SDS011;16074;42.708;23.312;2023-02-02T12:02:45;4.90;;;4.50;;
787;SDS011;16074;42.708;23.312;2023-02-02T12:05:31;3.78;;;3.47;;
787;SDS011;16074;42.708;23.312;2023-02-02T12:08:01;4.55;;;3.67;;
787;SDS011;16074;42.708;23.312;2023-02-02T12:10:33;3.75;;;3.45;;
787;SDS011;16074;42.708;23.312;2023-02-02T12:13:07;2.53;;;2.33;;
787;SDS011;16074;42.708;23.312;2023-02-02T12:15:45;2.28;;;2.08;;
787;SDS011;16074;42.708;23.312;2023-02-02T12:18:25;2.35;;;2.08;;
787;SDS011;16074;42.708;23.312;2023-02-02T12:21:07;3.60;;;2.35;;
787;SDS011;16074;42.708;23.312;2023-02-02T12:23:47;2.35;;;2.25;;
787;SDS011;16074;42.708;23.312;2023-02-02T12:26:24;2.53;;;2.17;;
787;SDS011;16074;42.708;23.312;2023-02-02T12:29:05;2.42;;;2.10;;
787;SDS011;16074;42.708;23.312;2023-02-02T12:34:55;2.00;;;1.90;;
787;SDS011;16074;42.708;23.312;2023-02-02T12:37:37;4.07;;;3.67;;
787;SDS011;16074;42.708;23.312;2023-02-02T12:40:20;2.65;;;2.45;;
787;SDS011;16074;42.708;23.312;2023-02-02T12:43:06;2.50;;;2.40;;
787;SDS011;16074;42.708;23.312;2023-02-02T12:45:50;3.17;;;2.65;;
787;SDS011;16074;42.708;23.312;2023-02-02T12:48:40;3.17;;;2.88;;
787;SDS011;16074;42.708;23.312;2023-02-02T12:51:22;3.70;;;3.40;;
787;SDS011;16074;42.708;23.312;2023-02-02T12:54:09;3.08;;;2.88;;
787;SDS011;16074;42.708;23.312;2023-02-02T12:57:20;3.65;;;2.90;;
787;SDS011;16074;42.708;23.312;2023-02-02T13:00:08;3.50;;;3.20;;
787;SDS011;16074;42.708;23.312;2023-02-02T13:02:54;2.55;;;2.35;;
787;SDS011;16074;42.708;23.312;2023-02-02T13:05:44;3.25;;;3.05;;
787;SDS011;16074;42.708;23.312;2023-02-02T13:08:24;3.63;;;2.90;;
787;SDS011;16074;42.708;23.312;2023-02-02T13:10:59;3.15;;;2.95;;
787;SDS011;16074;42.708;23.312;2023-02-02T13:13:53;3.17;;;2.88;;
787;SDS011;16074;42.708;23.312;2023-02-02T13:16:26;4.50;;;3.22;;
787;SDS011;16074;42.708;23.312;2023-02-02T13:18:59;4.43;;;2.75;;
787;SDS011;16074;42.708;23.312;2023-02-02T13:21:31;2.63;;;2.42;;
787;SDS011;16074;42.708;23.312;2023-02-02T13:24:02;4.05;;;2.58;;
787;SDS011;16074;42.708;23.312;2023-02-02T13:26:33;3.20;;;2.90;;
787;SDS011;16074;42.708;23.312;2023-02-02T13:29:05;3.05;;;2.80;;
787;SDS011;16074;42.708;23.312;2023-02-02T13:31:41;2.90;;;2.70;;
787;SDS011;16074;42.708;23.312;2023-02-02T13:34:16;4.30;;;2.65;;
787;SDS011;16074;42.708;23.312;2023-02-02T13:36:49;2.78;;;2.58;;
787;SDS011;16074;42.708;23.312;2023-02-02T13:39:22;2.35;;;2.15;;
787;SDS011;16074;42.708;23.312;2023-02-02T13:41:58;2.60;;;2.40;;
787;SDS011;16074;42.708;23.312;2023-02-02T13:44:29;2.75;;;2.55;;
787;SDS011;16074;42.708;23.312;2023-02-02T13:47:04;2.17;;;2.00;;
787;SDS011;16074;42.708;23.312;2023-02-02T13:49:36;3.97;;;3.55;;
787;SDS011;16074;42.708;23.312;2023-02-02T13:52:12;1.85;;;1.75;;
787;SDS011;16074;42.708;23.312;2023-02-02T13:55:15;2.30;;;2.10;;
787;SDS011;16074;42.708;23.312;2023-02-02T13:58:07;4.63;;;3.13;;
787;SDS011;16074;42.708;23.312;2023-02-02T14:00:53;4.55;;;2.40;;
787;SDS011;16074;42.708;23.312;2023-02-02T14:03:29;3.10;;;2.90;;
787;SDS011;16074;42.708;23.312;2023-02-02T14:06:05;3.17;;;2.97;;
787;SDS011;16074;42.708;23.312;2023-02-02T14:08:37;3.20;;;3.00;;
787;SDS011;16074;42.708;23.312;2023-02-02T14:11:15;1.58;;;1.50;;
787;SDS011;16074;42.708;23.312;2023-02-02T14:13:47;2.50;;;2.40;;
787;SDS011;16074;42.708;23.312;2023-02-02T14:16:42;2.55;;;2.40;;
787;SDS011;16074;42.708;23.312;2023-02-02T14:19:45;2.53;;;2.42;;
787;SDS011;16074;42.708;23.312;2023-02-02T14:34:29;3.03;;;2.83;;
787;SDS011;16074;42.708;23.312;2023-02-02T14:37:19;3.60;;;3.40;;
787;SDS011;16074;42.708;23.312;2023-02-02T14:40:24;6.13;;;3.60;;
787;SDS011;16074;42.708;23.312;2023-02-02T14:43:02;4.05;;;3.75;;
787;SDS011;16074;42.708;23.312;2023-02-02T14:46:15;6.32;;;4.00;;
787;SDS011;16074;42.708;23.312;2023-02-02T14:49:04;5.72;;;5.22;;
787;SDS011;16074;42.708;23.312;2023-02-02T14:51:59;8.60;;;6.90;;
787;SDS011;16074;42.708;23.312;2023-02-02T14:54:32;14.93;;;10.13;;
787;SDS011;16074;42.708;23.312;2023-02-02T14:57:04;7.97;;;7.20;;
787;SDS011;16074;42.708;23.312;2023-02-02T14:59:48;7.65;;;6.38;;
787;SDS011;16074;42.708;23.312;2023-02-02T15:02:21;6.18;;;5.60;;
787;SDS011;16074;42.708;23.312;2023-02-02T15:04:52;7.50;;;6.85;;
787;SDS011;16074;42.708;23.312;2023-02-02T15:08:12;6.45;;;5.85;;
787;SDS011;16074;42.708;23.312;2023-02-02T15:13:58;8.65;;;5.97;;
787;SDS011;16074;42.708;23.312;2023-02-02T15:16:34;7.03;;;6.28;;
787;SDS011;16074;42.708;23.312;2023-02-02T15:19:13;3.72;;;3.45;;
787;SDS011;16074;42.708;23.312;2023-02-02T15:21:50;3.30;;;3.10;;
787;SDS011;16074;42.708;23.312;2023-02-02T15:24:25;4.00;;;2.80;;
787;SDS011;16074;42.708;23.312;2023-02-02T15:26:55;5.57;;;4.03;;
787;SDS011;16074;42.708;23.312;2023-02-02T15:29:31;3.30;;;3.00;;
787;SDS011;16074;42.708;23.312;2023-02-02T15:32:08;3.10;;;2.85;;
787;SDS011;16074;42.708;23.312;2023-02-02T15:34:44;3.35;;;3.15;;
787;SDS011;16074;42.708;23.312;2023-02-02T15:37:16;3.05;;;2.85;;
787;SDS011;16074;42.708;23.312;2023-02-02T15:39:51;4.90;;;3.67;;
787;SDS011;16074;42.708;23.312;2023-02-02T15:42:22;3.40;;;3.10;;
787;SDS011;16074;42.708;23.312;2023-02-02T15:45:33;4.00;;;3.70;;
787;SDS011;16074;42.708;23.312;2023-02-02T15:48:16;3.55;;;3.28;;
787;SDS011;16074;42.708;23.312;2023-02-02T15:50:47;2.88;;;2.65;;
787;SDS011;16074;42.708;23.312;2023-02-02T15:53:21;2.80;;;2.60;;
787;SDS011;16074;42.708;23.312;2023-02-02T15:55:53;2.58;;;2.40;;
787;SDS011;16074;42.708;23.312;2023-02-02T15:58:23;2.67;;;2.47;;
787;SDS011;16074;42.708;23.312;2023-02-02T16:00:55;2.30;;;2.20;;
787;SDS011;16074;42.708;23.312;2023-02-02T16:03:30;2.50;;;2.38;;
787;SDS011;16074;42.708;23.312;2023-02-02T16:06:03;2.63;;;2.30;;